createdAt,value
2018-08-03T00:00:34.444Z,961.07
2018-08-03T00:01:34.441Z,961.08
2018-08-03T00:02:34.440Z,961.11
2018-08-03T00:03:34.437Z,961.08
2018-08-03T00:04:34.439Z,961.09
2018-08-03T00:05:34.435Z,961.09
2018-08-03T00:06:34.432Z,961.04
2018-08-03T00:07:34.433Z,961.03
2018-08-03T00:08:34.426Z,961.04
2018-08-03T00:09:34.425Z,960.98
2018-08-03T00:10:34.425Z,961.01
2018-08-03T00:11:34.421Z,961.01
2018-08-03T00:12:34.423Z,961.05
2018-08-03T00:13:34.418Z,961.05
2018-08-03T00:14:34.415Z,961.06
2018-08-03T00:15:34.413Z,961.04
2018-08-03T00:16:34.412Z,961.04
2018-08-03T00:17:34.410Z,961.01
2018-08-03T00:18:34.407Z,961.03
2018-08-03T00:19:34.405Z,960.99
2018-08-03T00:20:34.405Z,961
2018-08-03T00:21:34.401Z,961.01
2018-08-03T00:22:34.399Z,960.96
2018-08-03T00:23:34.397Z,960.98
2018-08-03T00:24:34.395Z,960.99
2018-08-03T00:25:34.392Z,960.95
2018-08-03T00:26:34.390Z,960.98
2018-08-03T00:27:34.387Z,961
2018-08-03T00:28:34.386Z,960.98
2018-08-03T00:29:34.383Z,960.97
2018-08-03T00:30:34.382Z,960.96
2018-08-03T00:31:34.379Z,960.96
2018-08-03T00:32:34.376Z,960.93
2018-08-03T00:33:34.373Z,960.95
2018-08-03T00:34:34.386Z,960.92
2018-08-03T00:35:34.371Z,960.95
2018-08-03T00:36:34.369Z,960.93
2018-08-03T00:37:34.371Z,960.91
2018-08-03T00:38:34.364Z,960.93
2018-08-03T00:39:34.361Z,960.99
2018-08-03T00:40:34.359Z,960.92
2018-08-03T00:41:34.357Z,960.92
2018-08-03T00:42:34.354Z,960.92
2018-08-03T00:43:34.351Z,960.87
2018-08-03T00:44:34.348Z,960.79
2018-08-03T00:45:34.347Z,960.79
2018-08-03T00:46:34.343Z,960.79
2018-08-03T00:47:34.341Z,960.8
2018-08-03T00:48:34.340Z,960.79
2018-08-03T00:49:34.339Z,960.78
2018-08-03T00:50:34.335Z,960.78
2018-08-03T00:51:34.333Z,960.8
2018-08-03T00:52:34.329Z,960.83
2018-08-03T00:53:34.328Z,960.79
2018-08-03T00:54:34.325Z,960.83
2018-08-03T00:55:34.323Z,960.83
2018-08-03T00:56:34.321Z,960.79
2018-08-03T00:57:34.319Z,960.78
2018-08-03T00:58:34.325Z,960.8
2018-08-03T00:59:34.314Z,960.78
2018-08-03T01:00:34.311Z,960.75
2018-08-03T01:01:34.308Z,960.77
2018-08-03T01:02:34.309Z,960.79
2018-08-03T01:03:34.304Z,960.8
2018-08-03T01:04:34.302Z,960.78
2018-08-03T01:05:34.299Z,960.82
2018-08-03T01:06:34.299Z,960.83
2018-08-03T01:07:34.298Z,960.85
2018-08-03T01:08:34.293Z,960.87
2018-08-03T01:09:34.289Z,960.88
2018-08-03T01:10:34.289Z,960.88
2018-08-03T01:11:34.285Z,960.88
2018-08-03T01:12:34.283Z,960.85
2018-08-03T01:13:34.280Z,960.85
2018-08-03T01:14:34.278Z,960.84
2018-08-03T01:15:34.275Z,960.77
2018-08-03T01:16:34.290Z,960.76
2018-08-03T01:17:34.270Z,960.73
2018-08-03T01:18:34.267Z,960.71
2018-08-03T01:19:34.264Z,960.72
2018-08-03T01:20:34.261Z,960.73
2018-08-03T01:21:34.258Z,960.72
2018-08-03T01:22:34.257Z,960.72
2018-08-03T01:23:34.256Z,960.7
2018-08-03T01:24:34.258Z,960.71
2018-08-03T01:25:34.249Z,960.68
2018-08-03T01:26:34.247Z,960.71
2018-08-03T01:27:34.243Z,960.69
2018-08-03T01:28:34.240Z,960.7
2018-08-03T01:29:34.238Z,960.73
2018-08-03T01:30:34.235Z,960.74
2018-08-03T01:31:34.233Z,960.74
2018-08-03T01:32:34.231Z,960.76
2018-08-03T01:33:34.228Z,960.76
2018-08-03T01:34:34.225Z,960.77
2018-08-03T01:35:34.224Z,960.71
2018-08-03T01:36:34.221Z,960.72
2018-08-03T01:37:34.218Z,960.73
2018-08-03T01:38:34.213Z,960.72
2018-08-03T01:39:34.213Z,960.76
2018-08-03T01:40:34.210Z,960.76
2018-08-03T01:41:34.210Z,960.77
2018-08-03T01:42:34.204Z,960.75
2018-08-03T01:43:34.206Z,960.83
2018-08-03T01:44:34.200Z,960.83
2018-08-03T01:45:34.198Z,960.82
2018-08-03T01:46:34.195Z,960.83
2018-08-03T01:47:34.193Z,960.81
2018-08-03T01:48:34.189Z,960.8
2018-08-03T01:49:34.188Z,960.82
2018-08-03T01:50:34.183Z,960.81
2018-08-03T01:51:34.183Z,960.88
2018-08-03T01:52:34.179Z,960.84
2018-08-03T01:53:34.177Z,960.78
2018-08-03T01:54:34.174Z,960.79
2018-08-03T01:55:34.172Z,960.76
2018-08-03T01:56:34.169Z,960.8
2018-08-03T01:57:34.164Z,960.72
2018-08-03T01:58:34.167Z,960.7
2018-08-03T01:59:34.160Z,960.73
2018-08-03T02:00:34.158Z,960.73
2018-08-03T02:01:34.154Z,960.74
2018-08-03T02:02:34.154Z,960.74
2018-08-03T02:03:34.152Z,960.71
2018-08-03T02:04:34.146Z,960.74
2018-08-03T02:05:34.146Z,960.7
2018-08-03T02:06:34.144Z,960.68
2018-08-03T02:07:34.138Z,960.71
2018-08-03T02:08:34.136Z,960.69
2018-08-03T02:09:34.132Z,960.71
2018-08-03T02:10:34.130Z,960.71
2018-08-03T02:11:34.131Z,960.73
2018-08-03T02:12:34.132Z,960.71
2018-08-03T02:13:34.122Z,960.71
2018-08-03T02:14:34.120Z,960.69
2018-08-03T02:15:34.114Z,960.74
2018-08-03T02:16:34.113Z,960.7
2018-08-03T02:17:34.109Z,960.69
2018-08-03T02:18:34.106Z,960.68
2018-08-03T02:19:34.104Z,960.7
2018-08-03T02:20:34.101Z,960.68
2018-08-03T02:21:34.099Z,960.65
2018-08-03T02:22:34.094Z,960.64
2018-08-03T02:23:34.092Z,960.63
2018-08-03T02:24:34.094Z,960.66
2018-08-03T02:25:34.087Z,960.63
2018-08-03T02:26:34.083Z,960.65
2018-08-03T02:27:34.082Z,960.69
2018-08-03T02:28:34.078Z,960.68
2018-08-03T02:29:34.074Z,960.67
2018-08-03T02:30:34.071Z,960.69
2018-08-03T02:31:34.072Z,960.67
2018-08-03T02:32:34.068Z,960.66
2018-08-03T02:33:34.062Z,960.7
2018-08-03T02:34:34.059Z,960.71
2018-08-03T02:35:34.059Z,960.71
2018-08-03T02:36:34.055Z,960.68
2018-08-03T02:37:34.051Z,960.7
2018-08-03T02:38:34.047Z,960.72
2018-08-03T02:39:34.045Z,960.72
2018-08-03T02:40:34.046Z,960.72
2018-08-03T02:41:34.043Z,960.7
2018-08-03T02:42:34.036Z,960.74
2018-08-03T02:43:34.034Z,960.69
2018-08-03T02:44:34.032Z,960.7
2018-08-03T02:45:34.026Z,960.67
2018-08-03T02:46:34.024Z,960.72
2018-08-03T02:47:34.021Z,960.68
2018-08-03T02:48:34.025Z,960.67
2018-08-03T02:49:34.014Z,960.7
2018-08-03T02:50:34.012Z,960.69
2018-08-03T02:51:34.008Z,960.72
2018-08-03T02:52:34.004Z,960.71
2018-08-03T02:53:34.001Z,960.73
2018-08-03T02:54:33.998Z,960.73
2018-08-03T02:55:33.993Z,960.68
2018-08-03T02:56:33.990Z,960.72
2018-08-03T02:57:33.992Z,960.76
2018-08-03T02:58:33.986Z,960.74
2018-08-03T02:59:33.982Z,960.76
2018-08-03T03:00:33.980Z,960.75
2018-08-03T03:01:33.986Z,960.73
2018-08-03T03:02:33.971Z,960.68
2018-08-03T03:03:33.969Z,960.68
2018-08-03T03:04:33.967Z,960.68
2018-08-03T03:05:33.963Z,960.63
2018-08-03T03:06:33.961Z,960.66
2018-08-03T03:07:33.957Z,960.61
2018-08-03T03:08:33.956Z,960.63
2018-08-03T03:09:33.952Z,960.63
2018-08-03T03:10:33.948Z,960.64
2018-08-03T03:11:33.944Z,960.68
2018-08-03T03:12:33.940Z,960.71
2018-08-03T03:13:33.937Z,960.67
2018-08-03T03:14:33.935Z,960.67
2018-08-03T03:15:33.931Z,960.67
2018-08-03T03:16:33.940Z,960.66
2018-08-03T03:17:33.924Z,960.65
2018-08-03T03:18:33.923Z,960.59
2018-08-03T03:19:33.941Z,960.65
2018-08-03T03:20:33.915Z,960.63
2018-08-03T03:21:33.913Z,960.58
2018-08-03T03:22:33.915Z,960.61
2018-08-03T03:23:33.905Z,960.63
2018-08-03T03:24:33.902Z,960.6
2018-08-03T03:25:33.901Z,960.61
2018-08-03T03:26:33.895Z,960.61
2018-08-03T03:27:33.893Z,960.61
2018-08-03T03:28:33.888Z,960.62
2018-08-03T03:29:33.886Z,960.59
2018-08-03T03:30:33.882Z,960.58
2018-08-03T03:31:33.879Z,960.56
2018-08-03T03:32:33.932Z,960.6
2018-08-03T03:33:33.949Z,960.59
2018-08-03T03:34:33.870Z,960.6
2018-08-03T03:35:33.866Z,960.61
2018-08-03T03:36:33.863Z,960.69
2018-08-03T03:37:33.859Z,960.68
2018-08-03T03:38:33.856Z,960.72
2018-08-03T03:39:33.852Z,960.73
2018-08-03T03:40:33.851Z,960.75
2018-08-03T03:41:33.846Z,960.73
2018-08-03T03:42:33.846Z,960.76
2018-08-03T03:43:33.840Z,960.75
2018-08-03T03:44:33.835Z,960.72
2018-08-03T03:45:33.916Z,960.74
2018-08-03T03:46:33.829Z,960.71
2018-08-03T03:47:33.825Z,960.71
2018-08-03T03:48:33.823Z,960.77
2018-08-03T03:49:33.820Z,960.75
2018-08-03T03:50:33.819Z,960.78
2018-08-03T03:51:33.813Z,960.78
2018-08-03T03:52:33.810Z,960.83
2018-08-03T03:53:33.810Z,960.83
2018-08-03T03:54:33.802Z,960.84
2018-08-03T03:55:33.799Z,960.84
2018-08-03T03:56:33.796Z,960.79
2018-08-03T03:57:33.792Z,960.77
2018-08-03T03:58:33.790Z,960.77
2018-08-03T03:59:33.787Z,960.77
2018-08-03T04:00:33.784Z,960.76
2018-08-03T04:01:33.780Z,960.74
2018-08-03T04:02:33.777Z,960.78
2018-08-03T04:03:33.774Z,960.8
2018-08-03T04:04:33.769Z,960.82
2018-08-03T04:05:33.772Z,960.81
2018-08-03T04:06:33.762Z,960.84
2018-08-03T04:07:33.761Z,960.84
2018-08-03T04:08:33.756Z,960.87
2018-08-03T04:09:33.753Z,960.92
2018-08-03T04:10:33.750Z,960.91
2018-08-03T04:11:33.746Z,960.91
2018-08-03T04:12:33.744Z,960.91
2018-08-03T04:13:33.739Z,960.91
2018-08-03T04:14:33.737Z,960.86
2018-08-03T04:15:33.733Z,960.88
2018-08-03T04:16:33.731Z,960.93
2018-08-03T04:17:33.728Z,960.88
2018-08-03T04:18:33.725Z,960.92
2018-08-03T04:19:33.720Z,960.92
2018-08-03T04:20:33.717Z,960.91
2018-08-03T04:21:33.714Z,960.9
2018-08-03T04:22:33.710Z,960.94
2018-08-03T04:23:33.708Z,960.98
2018-08-03T04:24:33.705Z,960.98
2018-08-03T04:25:33.724Z,960.97
2018-08-03T04:26:33.699Z,960.98
2018-08-03T04:27:33.695Z,960.99
2018-08-03T04:28:33.693Z,961
2018-08-03T04:29:33.689Z,961.01
2018-08-03T04:30:33.690Z,961
2018-08-03T04:31:33.682Z,961.01
2018-08-03T04:32:33.680Z,961.04
2018-08-03T04:33:33.676Z,961.05
2018-08-03T04:34:33.674Z,961.06
2018-08-03T04:35:33.670Z,961.08
2018-08-03T04:36:33.669Z,961.06
2018-08-03T04:37:33.664Z,961.09
2018-08-03T04:38:33.661Z,961.09
2018-08-03T04:39:33.658Z,961.14
2018-08-03T04:40:33.656Z,961.09
2018-08-03T04:41:33.652Z,961.11
2018-08-03T04:42:33.694Z,961.09
2018-08-03T04:43:33.648Z,961.08
2018-08-03T04:44:33.645Z,961.1
2018-08-03T04:45:33.642Z,961.14
2018-08-03T04:46:33.637Z,961.09
2018-08-03T04:47:33.636Z,961.1
2018-08-03T04:48:33.647Z,961.06
2018-08-03T04:49:33.629Z,961.1
2018-08-03T04:50:33.627Z,961.11
2018-08-03T04:51:33.623Z,961.09
2018-08-03T04:52:33.622Z,961.12
2018-08-03T04:53:33.618Z,961.15
2018-08-03T04:54:33.619Z,961.11
2018-08-03T04:55:33.613Z,961.11
2018-08-03T04:56:33.612Z,961.1
2018-08-03T04:57:33.609Z,961.11
2018-08-03T04:58:33.607Z,961.09
2018-08-03T04:59:33.604Z,961.11
2018-08-03T05:00:33.601Z,961.17
2018-08-03T05:01:33.599Z,961.16
2018-08-03T05:02:33.596Z,961.13
2018-08-03T05:03:33.593Z,961.13
2018-08-03T05:04:33.594Z,961.09
2018-08-03T05:05:33.590Z,961.09
2018-08-03T05:06:33.587Z,961.09
2018-08-03T05:07:33.585Z,961.09
2018-08-03T05:08:33.583Z,961.08
2018-08-03T05:09:33.580Z,961.12
2018-08-03T05:10:33.578Z,961.14
2018-08-03T05:11:33.575Z,961.14
2018-08-03T05:12:33.589Z,961.14
2018-08-03T05:13:33.573Z,961.15
2018-08-03T05:14:33.570Z,961.16
2018-08-03T05:15:33.593Z,961.13
2018-08-03T05:16:33.566Z,961.14
2018-08-03T05:17:33.610Z,961.18
2018-08-03T05:18:33.562Z,961.19
2018-08-03T05:19:33.561Z,961.15
2018-08-03T05:20:33.558Z,961.21
2018-08-03T05:21:33.558Z,961.14
2018-08-03T05:22:33.553Z,961.15
2018-08-03T05:23:33.557Z,961.15
2018-08-03T05:24:33.550Z,961.14
2018-08-03T05:25:33.549Z,961.09
2018-08-03T05:26:33.547Z,961.14
2018-08-03T05:27:33.544Z,961.12
2018-08-03T05:28:33.542Z,961.15
2018-08-03T05:29:33.542Z,961.17
2018-08-03T05:30:33.541Z,961.17
2018-08-03T05:31:33.541Z,961.19
2018-08-03T05:32:33.537Z,961.19
2018-08-03T05:33:33.537Z,961.16
2018-08-03T05:34:33.535Z,961.18
2018-08-03T05:35:33.677Z,961.11
2018-08-03T05:36:33.530Z,961.15
2018-08-03T05:37:33.530Z,961.15
2018-08-03T05:38:33.529Z,961.15
2018-08-03T05:39:33.527Z,961.17
2018-08-03T05:40:33.526Z,961.16
2018-08-03T05:41:33.526Z,961.17
2018-08-03T05:42:33.539Z,961.18
2018-08-03T05:43:33.522Z,961.19
2018-08-03T05:44:33.522Z,961.16
2018-08-03T05:45:33.534Z,961.22
2018-08-03T05:46:33.520Z,961.17
2018-08-03T05:47:33.519Z,961.16
2018-08-03T05:48:33.518Z,961.16
2018-08-03T05:49:33.533Z,961.15
2018-08-03T05:50:33.516Z,961.15
2018-08-03T05:51:33.517Z,961.13
2018-08-03T05:52:33.514Z,961.2
2018-08-03T05:53:33.513Z,961.15
2018-08-03T05:54:33.513Z,961.15
2018-08-03T05:55:33.512Z,961.18
2018-08-03T05:56:33.511Z,961.19
2018-08-03T05:57:33.533Z,961.15
2018-08-03T05:58:33.511Z,961.21
2018-08-03T05:59:33.510Z,961.18
2018-08-03T06:00:33.508Z,961.21
2018-08-03T06:01:33.507Z,961.17
2018-08-03T06:02:33.506Z,961.16
2018-08-03T06:03:33.514Z,961.17
2018-08-03T06:04:33.505Z,961.21
2018-08-03T06:05:33.503Z,961.22
2018-08-03T06:06:33.502Z,961.2
2018-08-03T06:07:33.503Z,961.24
2018-08-03T06:08:33.502Z,961.25
2018-08-03T06:09:33.524Z,961.28
2018-08-03T06:10:33.501Z,961.28
2018-08-03T06:11:33.516Z,961.28
2018-08-03T06:12:33.500Z,961.22
2018-08-03T06:13:33.499Z,961.24
2018-08-03T06:14:33.498Z,961.25
2018-08-03T06:15:33.499Z,961.28
2018-08-03T06:16:33.498Z,961.26
2018-08-03T06:17:33.497Z,961.26
2018-08-03T06:18:33.497Z,961.28
2018-08-03T06:19:33.497Z,961.25
2018-08-03T06:20:33.537Z,961.3
2018-08-03T06:21:33.496Z,961.3
2018-08-03T06:22:33.496Z,961.31
2018-08-03T06:23:33.494Z,961.29
2018-08-03T06:24:33.493Z,961.3
2018-08-03T06:25:33.494Z,961.29
2018-08-03T06:26:33.493Z,961.29
2018-08-03T06:27:33.494Z,961.27
2018-08-03T06:28:33.548Z,961.25
2018-08-03T06:29:33.521Z,961.23
2018-08-03T06:30:33.494Z,961.25
2018-08-03T06:31:33.495Z,961.26
2018-08-03T06:32:33.493Z,961.28
2018-08-03T06:33:33.494Z,961.28
2018-08-03T06:34:33.494Z,961.29
2018-08-03T06:35:33.500Z,961.27
2018-08-03T06:36:33.494Z,961.33
2018-08-03T06:37:33.497Z,961.3
2018-08-03T06:38:33.494Z,961.34
2018-08-03T06:39:33.493Z,961.25
2018-08-03T06:40:33.494Z,961.24
2018-08-03T06:41:33.494Z,961.25
2018-08-03T06:42:33.494Z,961.27
2018-08-03T06:43:33.494Z,961.25
2018-08-03T06:44:33.497Z,961.24
2018-08-03T06:45:33.496Z,961.21
2018-08-03T06:46:33.496Z,961.22
2018-08-03T06:47:33.496Z,961.24
2018-08-03T06:48:33.572Z,961.22
2018-08-03T06:49:33.497Z,961.23
2018-08-03T06:50:33.498Z,961.22
2018-08-03T06:51:33.499Z,961.24
2018-08-03T06:52:33.499Z,961.24
2018-08-03T06:53:33.500Z,961.25
2018-08-03T06:54:33.501Z,961.26
2018-08-03T06:55:33.506Z,961.25
2018-08-03T06:56:33.502Z,961.29
2018-08-03T06:57:33.612Z,961.31
2018-08-03T06:58:33.510Z,961.3
2018-08-03T06:59:33.509Z,961.23
2018-08-03T07:00:33.513Z,961.28
2018-08-03T07:01:33.513Z,961.27
2018-08-03T07:02:33.516Z,961.26
2018-08-03T07:03:33.518Z,961.27
2018-08-03T07:04:33.538Z,961.28
2018-08-03T07:05:33.524Z,961.24
2018-08-03T07:06:33.527Z,961.28
2018-08-03T07:07:33.530Z,961.24
2018-08-03T07:08:33.614Z,961.27
2018-08-03T07:09:33.539Z,961.28
2018-08-03T07:10:33.541Z,961.3
2018-08-03T07:11:33.546Z,961.28
2018-08-03T07:12:33.549Z,961.29
2018-08-03T07:13:33.554Z,961.3
2018-08-03T07:14:33.639Z,961.3
2018-08-03T07:15:33.564Z,961.39
2018-08-03T07:16:33.569Z,961.36
2018-08-03T07:17:33.575Z,961.42
2018-08-03T07:18:33.580Z,961.42
2018-08-03T07:19:33.584Z,961.45
2018-08-03T07:20:33.638Z,961.39
2018-08-03T07:21:33.599Z,961.39
2018-08-03T07:22:33.603Z,961.37
2018-08-03T07:23:33.611Z,961.34
2018-08-03T07:24:33.618Z,961.35
2018-08-03T07:25:33.623Z,961.32
2018-08-03T07:26:33.630Z,961.35
2018-08-03T07:27:33.637Z,961.34
2018-08-03T07:28:33.646Z,961.33
2018-08-03T07:29:33.651Z,961.39
2018-08-03T07:30:33.660Z,961.44
2018-08-03T07:31:33.738Z,961.43
2018-08-03T07:32:33.673Z,961.43
2018-08-03T07:33:33.682Z,961.46
2018-08-03T07:34:33.689Z,961.47
2018-08-03T07:35:33.699Z,961.44
2018-08-03T07:36:33.705Z,961.41
2018-08-03T07:37:33.713Z,961.41
2018-08-03T07:38:33.722Z,961.41
2018-08-03T07:39:33.731Z,961.46
2018-08-03T07:40:33.738Z,961.49
2018-08-03T07:41:33.748Z,961.48
2018-08-03T07:42:33.755Z,961.57
2018-08-03T07:43:33.804Z,961.63
2018-08-03T07:44:33.791Z,961.71
2018-08-03T07:45:33.780Z,961.68
2018-08-03T07:46:33.789Z,961.67
2018-08-03T07:47:33.798Z,961.71
2018-08-03T07:48:33.807Z,961.73
2018-08-03T07:49:33.816Z,961.78
2018-08-03T07:50:33.823Z,961.69
2018-08-03T07:51:33.832Z,961.39
2018-08-03T07:52:33.858Z,961.2
2018-08-03T07:53:33.855Z,961.21
2018-08-03T07:54:33.860Z,961.23
2018-08-03T07:55:33.867Z,961.21
2018-08-03T07:56:33.875Z,961.2
2018-08-03T07:57:33.883Z,961.2
2018-08-03T07:58:33.892Z,961.17
2018-08-03T07:59:33.901Z,961.18
2018-08-03T08:00:33.910Z,961.13
2018-08-03T08:01:33.917Z,961.13
2018-08-03T08:02:33.925Z,961.13
2018-08-03T08:03:33.933Z,961.13
2018-08-03T08:04:33.942Z,961.18
2018-08-03T08:05:33.950Z,961.12
2018-08-03T08:06:33.960Z,961.15
2018-08-03T08:07:33.964Z,961.14
2018-08-03T08:08:33.973Z,961.14
2018-08-03T08:09:33.987Z,961.12
2018-08-03T08:10:33.987Z,961.12
2018-08-03T08:11:33.998Z,961.09
2018-08-03T08:12:34.003Z,961.04
2018-08-03T08:13:34.007Z,961.07
2018-08-03T08:14:34.019Z,961.01
2018-08-03T08:15:34.071Z,961.01
2018-08-03T08:16:34.072Z,960.98
2018-08-03T08:17:34.044Z,960.99
2018-08-03T08:18:34.042Z,961.01
2018-08-03T08:19:34.050Z,960.99
2018-08-03T08:20:34.054Z,960.99
2018-08-03T08:21:34.060Z,960.97
2018-08-03T08:22:34.067Z,960.95
2018-08-03T08:23:34.075Z,960.96
2018-08-03T08:24:34.079Z,960.95
2018-08-03T08:25:34.085Z,960.97
2018-08-03T08:26:34.092Z,960.98
2018-08-03T08:27:34.099Z,960.95
2018-08-03T08:28:34.103Z,960.99
2018-08-03T08:29:34.109Z,960.96
2018-08-03T08:30:34.116Z,960.94
2018-08-03T08:31:34.179Z,960.94
2018-08-03T08:32:34.129Z,960.95
2018-08-03T08:33:34.133Z,960.93
2018-08-03T08:34:34.139Z,960.95
2018-08-03T08:35:34.142Z,960.91
2018-08-03T08:36:34.149Z,960.94
2018-08-03T08:37:34.153Z,960.93
2018-08-03T08:38:34.159Z,960.91
2018-08-03T08:39:34.165Z,960.92
2018-08-03T08:40:34.170Z,960.97
2018-08-03T08:41:34.175Z,960.93
2018-08-03T08:42:34.181Z,960.92
2018-08-03T08:43:34.250Z,960.96
2018-08-03T08:44:34.192Z,960.93
2018-08-03T08:45:34.198Z,960.89
2018-08-03T08:46:34.201Z,960.88
2018-08-03T08:47:34.207Z,960.92
2018-08-03T08:48:34.214Z,960.97
2018-08-03T08:49:34.218Z,960.87
2018-08-03T08:50:34.224Z,960.88
2018-08-03T08:51:34.229Z,960.84
2018-08-03T08:52:34.239Z,960.86
2018-08-03T08:53:34.245Z,960.88
2018-08-03T08:54:34.250Z,960.84
2018-08-03T08:55:34.251Z,960.87
2018-08-03T08:56:34.256Z,960.9
2018-08-03T08:57:34.266Z,960.86
2018-08-03T08:58:34.267Z,960.84
2018-08-03T08:59:34.298Z,960.85
2018-08-03T09:00:34.277Z,960.83
2018-08-03T09:01:34.282Z,960.86
2018-08-03T09:02:34.287Z,960.85
2018-08-03T09:03:34.297Z,960.86
2018-08-03T09:04:34.302Z,960.81
2018-08-03T09:05:34.304Z,960.81
2018-08-03T09:06:34.311Z,960.75
2018-08-03T09:07:34.465Z,960.74
2018-08-03T09:08:34.320Z,960.73
2018-08-03T09:09:34.330Z,960.73
2018-08-03T09:10:34.331Z,960.75
2018-08-03T09:11:34.338Z,960.74
2018-08-03T09:12:34.343Z,960.72
2018-08-03T09:13:34.348Z,960.68
2018-08-03T09:14:34.353Z,960.67
2018-08-03T09:15:34.360Z,960.7
2018-08-03T09:16:34.365Z,960.69
2018-08-03T09:17:34.369Z,960.72
2018-08-03T09:18:34.390Z,960.73
2018-08-03T09:19:34.382Z,960.63
2018-08-03T09:20:34.386Z,960.67
2018-08-03T09:21:34.397Z,960.69
2018-08-03T09:22:34.397Z,960.74
2018-08-03T09:23:34.403Z,960.68
2018-08-03T09:24:34.470Z,960.65
2018-08-03T09:25:34.415Z,960.62
2018-08-03T09:26:34.419Z,960.63
2018-08-03T09:27:34.426Z,960.61
2018-08-03T09:28:34.519Z,960.6
2018-08-03T09:29:34.441Z,960.59
2018-08-03T09:30:34.445Z,960.6
2018-08-03T09:31:34.448Z,960.64
2018-08-03T09:32:34.453Z,960.58
2018-08-03T09:33:34.456Z,960.64
2018-08-03T09:34:34.462Z,960.57
2018-08-03T09:35:34.469Z,960.57
2018-08-03T09:36:34.519Z,960.56
2018-08-03T09:37:34.486Z,960.58
2018-08-03T09:38:34.486Z,960.52
2018-08-03T09:39:34.491Z,960.52
2018-08-03T09:40:34.497Z,960.53
2018-08-03T09:41:34.503Z,960.56
2018-08-03T09:42:34.509Z,960.49
2018-08-03T09:43:34.516Z,960.5
2018-08-03T09:44:34.519Z,960.5
2018-08-03T09:45:34.526Z,960.44
2018-08-03T09:46:34.533Z,960.43
2018-08-03T09:47:34.538Z,960.47
2018-08-03T09:48:34.546Z,960.49
2018-08-03T09:49:34.551Z,960.48
2018-08-03T09:50:34.555Z,960.49
2018-08-03T09:51:34.559Z,960.42
2018-08-03T09:52:34.567Z,960.42
2018-08-03T09:53:34.573Z,960.42
2018-08-03T09:54:34.657Z,960.44
2018-08-03T09:55:34.584Z,960.42
2018-08-03T09:56:34.591Z,960.48
2018-08-03T09:57:34.597Z,960.43
2018-08-03T09:58:34.603Z,960.44
2018-08-03T09:59:34.607Z,960.39
2018-08-03T10:00:34.615Z,960.39
2018-08-03T10:01:34.674Z,960.38
2018-08-03T10:02:34.625Z,960.35
2018-08-03T10:03:34.633Z,960.35
2018-08-03T10:04:34.639Z,960.37
2018-08-03T10:05:34.645Z,960.36
2018-08-03T10:06:34.649Z,960.37
2018-08-03T10:07:34.657Z,960.36
2018-08-03T10:08:34.663Z,960.36
2018-08-03T10:09:34.670Z,960.36
2018-08-03T10:10:34.674Z,960.37
2018-08-03T10:11:34.680Z,960.39
2018-08-03T10:12:34.687Z,960.36
2018-08-03T10:13:34.692Z,960.35
2018-08-03T10:14:34.698Z,960.31
2018-08-03T10:15:34.750Z,960.32
2018-08-03T10:16:34.710Z,960.36
2018-08-03T10:17:34.715Z,960.35
2018-08-03T10:18:34.721Z,960.33
2018-08-03T10:19:34.728Z,960.35
2018-08-03T10:20:34.733Z,960.3
2018-08-03T10:21:34.738Z,960.27
2018-08-03T10:22:34.746Z,960.27
2018-08-03T10:23:34.752Z,960.27
2018-08-03T10:24:34.758Z,960.27
2018-08-03T10:25:34.765Z,960.32
2018-08-03T10:26:34.770Z,960.28
2018-08-03T10:27:34.778Z,960.29
2018-08-03T10:28:34.782Z,960.3
2018-08-03T10:29:34.857Z,960.29
2018-08-03T10:30:34.794Z,960.27
2018-08-03T10:31:34.800Z,960.27
2018-08-03T10:32:34.805Z,960.29
2018-08-03T10:33:34.812Z,960.27
2018-08-03T10:34:34.818Z,960.27
2018-08-03T10:35:34.824Z,960.31
2018-08-03T10:36:34.831Z,960.25
2018-08-03T10:37:34.835Z,960.18
2018-08-03T10:38:34.842Z,960.14
2018-08-03T10:39:34.847Z,960.17
2018-08-03T10:40:34.852Z,960.21
2018-08-03T10:41:34.857Z,960.18
2018-08-03T10:42:34.864Z,960.17
2018-08-03T10:43:34.870Z,960.13
2018-08-03T10:44:34.877Z,960.09
2018-08-03T10:45:34.881Z,960.1
2018-08-03T10:46:34.888Z,960.11
2018-08-03T10:47:34.893Z,960.11
2018-08-03T10:48:34.921Z,960.08
2018-08-03T10:49:34.905Z,960.09
2018-08-03T10:50:34.910Z,960.09
2018-08-03T10:51:34.919Z,960.03
2018-08-03T10:52:34.927Z,960.08
2018-08-03T10:53:34.931Z,960.13
2018-08-03T10:54:34.936Z,960.06
2018-08-03T10:55:34.943Z,960.09
2018-08-03T10:56:34.950Z,960.09
2018-08-03T10:57:34.955Z,960.06
2018-08-03T10:58:34.960Z,960.12
2018-08-03T10:59:34.971Z,960.1
2018-08-03T11:00:34.975Z,960.08
2018-08-03T11:01:35.010Z,960.04
2018-08-03T11:02:34.987Z,960.06
2018-08-03T11:03:34.995Z,960.04
2018-08-03T11:04:35.002Z,959.98
2018-08-03T11:05:35.006Z,959.97
2018-08-03T11:06:35.017Z,960.02
2018-08-03T11:07:35.020Z,960.06
2018-08-03T11:08:35.027Z,960.02
2018-08-03T11:09:35.039Z,960
2018-08-03T11:10:35.041Z,959.99
2018-08-03T11:11:35.048Z,959.96
2018-08-03T11:12:35.055Z,959.98
2018-08-03T11:13:35.095Z,959.97
2018-08-03T11:14:35.069Z,960.02
2018-08-03T11:15:35.076Z,959.99
2018-08-03T11:16:35.082Z,959.98
2018-08-03T11:17:35.094Z,959.94
2018-08-03T11:18:35.098Z,959.95
2018-08-03T11:19:35.102Z,959.89
2018-08-03T11:20:35.110Z,959.86
2018-08-03T11:21:35.118Z,959.89
2018-08-03T11:22:35.124Z,959.81
2018-08-03T11:23:35.132Z,959.86
2018-08-03T11:24:35.142Z,959.9
2018-08-03T11:25:35.145Z,959.9
2018-08-03T11:26:35.151Z,959.9
2018-08-03T11:27:35.159Z,959.91
2018-08-03T11:28:35.165Z,959.86
2018-08-03T11:29:35.235Z,959.86
2018-08-03T11:30:35.180Z,959.82
2018-08-03T11:31:35.186Z,959.81
2018-08-03T11:32:35.193Z,959.77
2018-08-03T11:33:35.202Z,959.77
2018-08-03T11:34:35.207Z,959.76
2018-08-03T11:35:35.216Z,959.75
2018-08-03T11:36:35.221Z,959.78
2018-08-03T11:37:35.226Z,959.77
2018-08-03T11:38:35.280Z,959.79
2018-08-03T11:39:35.241Z,959.85
2018-08-03T11:40:35.249Z,959.79
2018-08-03T11:41:35.255Z,959.78
2018-08-03T11:42:35.262Z,959.77
2018-08-03T11:43:35.270Z,959.77
2018-08-03T11:44:35.278Z,959.87
2018-08-03T11:45:35.283Z,959.83
2018-08-03T11:46:35.289Z,959.83
2018-08-03T11:47:35.299Z,959.82
2018-08-03T11:48:35.302Z,959.81
2018-08-03T11:49:35.312Z,959.78
2018-08-03T11:50:35.318Z,959.77
2018-08-03T11:51:35.325Z,959.74
2018-08-03T11:52:35.330Z,959.78
2018-08-03T11:53:35.338Z,959.77
2018-08-03T11:54:35.345Z,959.76
2018-08-03T11:55:35.351Z,959.75
2018-08-03T11:56:35.361Z,959.7
2018-08-03T11:57:35.364Z,959.75
2018-08-03T11:58:35.371Z,959.77
2018-08-03T11:59:35.379Z,959.75
2018-08-03T12:00:35.387Z,959.74
2018-08-03T12:01:35.393Z,959.8
2018-08-03T12:02:35.400Z,959.78
2018-08-03T12:03:35.406Z,959.82
2018-08-03T12:04:35.419Z,959.8
2018-08-03T12:05:35.421Z,959.77
2018-08-03T12:06:35.471Z,959.75
2018-08-03T12:07:35.437Z,959.76
2018-08-03T12:08:35.444Z,959.78
2018-08-03T12:09:35.450Z,959.76
2018-08-03T12:10:35.457Z,959.73
2018-08-03T12:11:35.464Z,959.78
2018-08-03T12:12:35.498Z,959.78
2018-08-03T12:13:35.480Z,959.8
2018-08-03T12:14:35.486Z,959.8
2018-08-03T12:15:35.492Z,959.74
2018-08-03T12:16:35.501Z,959.71
2018-08-03T12:17:35.509Z,959.72
2018-08-03T12:18:35.515Z,959.65
2018-08-03T12:19:35.521Z,959.74
2018-08-03T12:20:35.529Z,959.7
2018-08-03T12:21:35.536Z,959.71
2018-08-03T12:22:35.542Z,959.74
2018-08-03T12:23:35.621Z,959.65
2018-08-03T12:24:35.557Z,959.72
2018-08-03T12:25:35.563Z,959.7
2018-08-03T12:26:35.594Z,959.68
2018-08-03T12:27:35.576Z,959.64
2018-08-03T12:28:35.583Z,959.6
2018-08-03T12:29:35.589Z,959.55
2018-08-03T12:30:35.597Z,959.59